createdAt,value
2023-05-06T00:02:42.483Z,7.90
2023-05-06T00:05:31.048Z,4.73
2023-05-06T00:08:21.002Z,4.30
2023-05-06T00:11:09.489Z,4.83
2023-05-06T00:13:57.969Z,8.97
2023-05-06T00:16:46.565Z,5.03
2023-05-06T00:19:35.083Z,4.60
2023-05-06T00:22:23.614Z,5.30
2023-05-06T00:25:13.429Z,5.70
2023-05-06T00:28:01.957Z,4.90
2023-05-06T00:30:50.476Z,5.50
2023-05-06T00:33:38.979Z,5.77
2023-05-06T00:36:27.672Z,6.23
2023-05-06T00:39:18.992Z,7.03
2023-05-06T00:42:08.890Z,7.80
2023-05-06T00:44:57.317Z,5.07
2023-05-06T00:47:45.932Z,5.93
2023-05-06T00:50:34.975Z,6.80
2023-05-06T00:53:23.558Z,9.57
2023-05-06T00:56:12.257Z,6.00
2023-05-06T00:59:02.224Z,5.20
2023-05-06T01:01:52.164Z,6.23
2023-05-06T01:04:41.908Z,5.10
2023-05-06T01:07:42.341Z,5.30
2023-05-06T01:10:36.426Z,5.70
2023-05-06T01:13:31.114Z,5.63
2023-05-06T01:16:21.808Z,6.60
2023-05-06T01:19:12.341Z,5.63
2023-05-06T01:22:02.361Z,7.20
2023-05-06T01:24:52.130Z,6.90
2023-05-06T01:27:40.626Z,5.47
2023-05-06T01:30:35.297Z,5.10
2023-05-06T01:33:28.317Z,6.80
2023-05-06T01:36:21.490Z,6.10
2023-05-06T01:39:18.655Z,7.10
2023-05-06T01:42:10.777Z,6.93
2023-05-06T01:45:01.513Z,6.57
2023-05-06T01:47:50.187Z,6.57
2023-05-06T01:50:38.714Z,8.30
2023-05-06T01:53:27.207Z,6.97
2023-05-06T01:56:16.324Z,6.80
2023-05-06T01:59:06.594Z,6.87
2023-05-06T02:01:55.124Z,6.47
2023-05-06T02:04:43.658Z,9.33
2023-05-06T02:07:32.110Z,9.00
2023-05-06T02:10:20.611Z,5.60
2023-05-06T02:13:10.246Z,6.20
2023-05-06T02:16:00.179Z,6.57
2023-05-06T02:18:48.678Z,9.37
2023-05-06T02:21:37.880Z,12.47
2023-05-06T02:24:26.876Z,9.37
2023-05-06T02:27:15.386Z,6.47
2023-05-06T02:30:03.931Z,7.90
2023-05-06T02:32:53.800Z,7.53
2023-05-06T02:35:42.273Z,8.23
2023-05-06T02:38:30.729Z,6.90
2023-05-06T02:41:19.187Z,6.40
2023-05-06T02:44:07.634Z,7.73
2023-05-06T02:46:56.096Z,6.47
2023-05-06T02:49:45.938Z,6.83
2023-05-06T02:52:34.966Z,6.80
2023-05-06T02:55:23.673Z,7.37
2023-05-06T02:58:12.208Z,8.33
2023-05-06T03:01:00.714Z,8.87
2023-05-06T03:03:49.246Z,7.10
2023-05-06T03:06:39.048Z,8.60
2023-05-06T03:09:27.534Z,7.03
2023-05-06T03:12:16.543Z,7.30
2023-05-06T03:15:05.908Z,6.33
2023-05-06T03:17:54.451Z,7.60
2023-05-06T03:20:42.919Z,8.40
2023-05-06T03:23:32.918Z,7.13
2023-05-06T03:26:21.669Z,6.50
2023-05-06T03:29:10.153Z,7.50
2023-05-06T03:31:58.792Z,7.53
2023-05-06T03:34:47.254Z,6.93
2023-05-06T03:37:35.785Z,7.67
2023-05-06T03:40:25.704Z,7.23
2023-05-06T03:43:14.132Z,6.70
2023-05-06T03:46:02.671Z,8.20
2023-05-06T03:48:51.164Z,10.53
2023-05-06T03:51:39.643Z,7.43
2023-05-06T03:54:28.132Z,8.33
2023-05-06T03:57:17.943Z,6.70
2023-05-06T04:00:07.818Z,8.90
2023-05-06T04:02:56.399Z,8.67
2023-05-06T04:05:45.197Z,7.20
2023-05-06T04:08:33.652Z,7.83
2023-05-06T04:11:22.096Z,8.47
2023-05-06T04:14:12.005Z,8.97
2023-05-06T04:17:00.788Z,11.43
2023-05-06T04:19:49.523Z,11.30
2023-05-06T04:22:38.325Z,15.23
2023-05-06T04:25:27.977Z,15.37
2023-05-06T04:28:17.570Z,16.43
2023-05-06T04:31:08.950Z,21.97
2023-05-06T04:33:57.453Z,21.90
2023-05-06T04:36:47.002Z,27.40
2023-05-06T04:39:36.913Z,17.63
2023-05-06T04:42:25.565Z,16.80
2023-05-06T04:45:14.077Z,14.90
2023-05-06T04:48:03.946Z,13.97
2023-05-06T04:50:52.528Z,31.40
2023-05-06T04:53:41.243Z,18.83
2023-05-06T04:56:29.742Z,12.27
2023-05-06T04:59:18.294Z,11.23
2023-05-06T05:02:06.866Z,12.27
2023-05-06T05:04:56.713Z,11.93
2023-05-06T05:07:45.223Z,12.43
2023-05-06T05:10:33.762Z,12.17
2023-05-06T05:13:22.445Z,15.53
2023-05-06T05:16:11.008Z,16.10
2023-05-06T05:19:02.194Z,11.43
2023-05-06T05:21:53.336Z,11.40
2023-05-06T05:24:41.793Z,12.50
2023-05-06T05:27:30.525Z,15.17
2023-05-06T05:30:19.307Z,19.63
2023-05-06T05:33:07.985Z,10.57
2023-05-06T05:35:56.539Z,10.67
2023-05-06T05:38:47.771Z,12.70
2023-05-06T05:41:36.275Z,11.93
2023-05-06T05:44:24.703Z,11.43
2023-05-06T05:47:13.461Z,10.17
2023-05-06T05:50:02.100Z,10.70
2023-05-06T05:52:51.404Z,11.20
2023-05-06T05:55:41.262Z,11.80
2023-05-06T05:58:29.809Z,10.97
2023-05-06T06:01:18.552Z,12.70
2023-05-06T06:04:07.065Z,12.53
2023-05-06T06:06:58.019Z,14.60
2023-05-06T06:09:46.900Z,12.40
2023-05-06T06:12:36.801Z,13.00
2023-05-06T06:15:25.636Z,12.90
2023-05-06T06:18:14.375Z,12.70
2023-05-06T06:21:02.919Z,11.77
2023-05-06T06:23:51.401Z,13.27
2023-05-06T06:26:39.897Z,12.37
2023-05-06T06:29:29.722Z,12.23
2023-05-06T06:32:18.303Z,12.80
2023-05-06T06:35:07.560Z,10.93
2023-05-06T06:37:56.130Z,10.83
2023-05-06T06:40:44.640Z,9.53
2023-05-06T06:43:33.275Z,9.90
2023-05-06T06:46:23.837Z,11.97
2023-05-06T06:49:12.562Z,12.20
2023-05-06T06:52:01.207Z,10.27
2023-05-06T06:54:49.629Z,10.80
2023-05-06T06:57:38.158Z,11.57
2023-05-06T07:00:26.811Z,10.63
2023-05-06T07:03:19.479Z,11.37
2023-05-06T07:06:09.071Z,10.50
2023-05-06T07:08:57.652Z,9.37
2023-05-06T07:11:46.251Z,11.03
2023-05-06T07:14:35.257Z,9.87
2023-05-06T07:17:26.988Z,9.27
2023-05-06T07:20:17.203Z,8.77
2023-05-06T07:23:08.414Z,8.47
2023-05-06T07:25:56.851Z,7.80
2023-05-06T07:28:45.411Z,8.87
2023-05-06T07:31:34.714Z,6.83
2023-05-06T07:34:23.292Z,8.10
2023-05-06T07:37:13.195Z,6.80
2023-05-06T07:40:01.831Z,6.43
2023-05-06T07:42:50.438Z,5.60
2023-05-06T07:45:38.996Z,7.57
2023-05-06T07:48:27.820Z,5.73
2023-05-06T07:51:17.712Z,5.30
2023-05-06T07:54:07.503Z,3.97
2023-05-06T07:56:57.123Z,3.70
2023-05-06T07:59:48.861Z,4.67
2023-05-06T08:02:38.632Z,5.00
2023-05-06T08:05:27.257Z,4.37
2023-05-06T08:08:15.967Z,4.23
2023-05-06T08:11:06.105Z,4.20
2023-05-06T08:13:54.776Z,4.40
2023-05-06T08:16:43.504Z,4.83
2023-05-06T08:19:32.164Z,3.03
2023-05-06T08:22:20.675Z,4.50
2023-05-06T08:25:10.715Z,3.83
2023-05-06T08:28:00.782Z,3.27
2023-05-06T08:30:51.306Z,2.90
2023-05-06T08:33:39.820Z,4.43
2023-05-06T08:36:29.263Z,2.90
2023-05-06T08:39:18.271Z,3.80
2023-05-06T08:42:07.162Z,2.50
2023-05-06T08:44:57.796Z,6.07
2023-05-06T08:47:47.419Z,2.40
2023-05-06T08:50:43.189Z,2.20
2023-05-06T08:53:32.026Z,4.00
2023-05-06T08:56:21.213Z,3.10
2023-05-06T08:59:09.997Z,5.17
2023-05-06T09:02:01.060Z,6.23
2023-05-06T09:04:49.689Z,2.60
2023-05-06T09:07:38.240Z,3.20
2023-05-06T09:10:32.642Z,2.70
2023-05-06T09:13:21.261Z,3.87
2023-05-06T09:16:09.914Z,2.30
2023-05-06T09:19:00.112Z,2.30
2023-05-06T09:21:50.037Z,2.10
2023-05-06T09:24:38.549Z,4.13
2023-05-06T09:27:28.536Z,2.43
2023-05-06T09:30:17.096Z,2.10
2023-05-06T09:33:06.135Z,3.57
2023-05-06T09:35:56.367Z,2.40
2023-05-06T09:38:44.878Z,2.60
2023-05-06T09:41:33.985Z,3.13
2023-05-06T09:44:24.006Z,2.83
2023-05-06T09:47:12.527Z,2.57
2023-05-06T09:50:02.591Z,15.07
2023-05-06T09:52:52.518Z,11.93
2023-05-06T09:55:41.274Z,2.40
2023-05-06T09:58:31.836Z,2.60
2023-05-06T10:01:32.848Z,2.30
2023-05-06T10:04:27.774Z,3.13
2023-05-06T10:07:19.559Z,2.53
2023-05-06T10:10:11.909Z,6.90
2023-05-06T10:13:00.422Z,2.60
2023-05-06T10:15:49.963Z,2.67
2023-05-06T10:18:39.137Z,2.20
2023-05-06T10:21:29.055Z,2.10
2023-05-06T10:24:20.110Z,2.30
2023-05-06T10:27:10.925Z,3.13
2023-05-06T10:30:00.900Z,3.17
2023-05-06T10:32:52.124Z,3.20
2023-05-06T10:35:49.213Z,2.43
2023-05-06T10:38:41.802Z,2.67
2023-05-06T10:41:30.674Z,3.70
2023-05-06T10:44:59.351Z,2.50
2023-05-06T10:48:09.609Z,2.20
2023-05-06T10:51:22.245Z,2.37
2023-05-06T10:54:11.371Z,2.43
2023-05-06T10:57:09.723Z,2.47
2023-05-06T10:59:59.609Z,2.60
2023-05-06T11:02:52.465Z,4.10
2023-05-06T11:05:51.684Z,2.73
2023-05-06T11:08:40.275Z,2.73
2023-05-06T11:11:48.039Z,3.13
2023-05-06T11:14:37.576Z,3.20
2023-05-06T11:17:34.848Z,2.37
2023-05-06T11:20:24.319Z,2.17
2023-05-06T11:23:12.768Z,1.73
2023-05-06T11:26:01.256Z,2.87
2023-05-06T11:28:51.448Z,2.33
2023-05-06T11:31:41.762Z,2.40
2023-05-06T11:34:32.624Z,2.00
2023-05-06T11:37:26.610Z,4.00
2023-05-06T11:40:16.368Z,1.90
2023-05-06T11:43:11.846Z,2.00
2023-05-06T11:46:00.435Z,2.97
2023-05-06T11:48:49.123Z,2.80
2023-05-06T11:51:38.936Z,1.80
2023-05-06T11:54:28.224Z,2.90
2023-05-06T11:57:16.682Z,2.23
2023-05-06T12:00:07.805Z,1.60
2023-05-06T12:02:56.926Z,1.70
2023-05-06T12:05:45.652Z,1.57
2023-05-06T12:08:37.236Z,3.10
2023-05-06T12:11:25.966Z,1.43
2023-05-06T12:14:14.855Z,2.93
2023-05-06T12:17:03.796Z,1.40
2023-05-06T12:19:52.316Z,1.70
2023-05-06T12:22:41.798Z,1.60
2023-05-06T12:25:31.719Z,1.30
2023-05-06T12:28:22.239Z,1.37
2023-05-06T12:31:20.802Z,1.67
2023-05-06T12:34:09.720Z,3.80
2023-05-06T12:36:58.220Z,1.63
2023-05-06T12:39:46.693Z,1.53
2023-05-06T12:42:36.588Z,1.70
2023-05-06T12:45:26.111Z,1.50
2023-05-06T12:48:17.471Z,1.77
2023-05-06T12:51:18.648Z,1.30
2023-05-06T12:54:29.822Z,2.27
2023-05-06T12:57:18.508Z,1.70
2023-05-06T13:00:10.975Z,1.40
2023-05-06T13:02:59.787Z,4.70
2023-05-06T13:05:50.181Z,2.07
2023-05-06T13:08:38.825Z,1.33
2023-05-06T13:11:27.939Z,1.33
2023-05-06T13:14:16.442Z,2.77
2023-05-06T13:17:06.756Z,1.50
2023-05-06T13:19:56.953Z,1.50
2023-05-06T13:22:54.472Z,1.50
2023-05-06T13:25:56.325Z,2.43
2023-05-06T13:28:52.367Z,1.67
2023-05-06T13:31:40.888Z,1.83
2023-05-06T13:34:30.891Z,1.40
2023-05-06T13:37:19.391Z,1.57
2023-05-06T13:40:09.191Z,1.83
2023-05-06T13:42:58.007Z,1.73
2023-05-06T13:45:46.653Z,1.90
2023-05-06T13:48:35.234Z,1.40
2023-05-06T13:51:27.464Z,3.20
2023-05-06T13:54:16.082Z,1.30
2023-05-06T13:57:05.009Z,1.60
2023-05-06T13:59:53.498Z,1.70
2023-05-06T14:02:42.378Z,2.00
2023-05-06T14:05:30.972Z,1.80
2023-05-06T14:08:20.833Z,1.63
2023-05-06T14:11:10.139Z,1.40
2023-05-06T14:13:58.575Z,2.20
2023-05-06T14:16:47.535Z,1.70
2023-05-06T14:19:36.142Z,2.33
2023-05-06T14:22:24.679Z,1.67
2023-05-06T14:25:14.542Z,1.50
2023-05-06T14:28:03.151Z,1.63
2023-05-06T14:30:52.057Z,1.60
2023-05-06T14:33:40.618Z,2.03
2023-05-06T14:36:29.076Z,1.30
2023-05-06T14:39:17.516Z,1.40
2023-05-06T14:42:07.468Z,1.70
2023-05-06T14:44:55.919Z,2.90
2023-05-06T14:47:44.612Z,2.03
2023-05-06T14:50:33.256Z,1.83
2023-05-06T14:53:21.824Z,2.30
2023-05-06T14:56:11.477Z,3.57
2023-05-06T14:59:03.687Z,1.90
2023-05-06T15:01:52.502Z,1.43
2023-05-06T15:04:40.991Z,1.83
2023-05-06T15:07:29.500Z,3.23
2023-05-06T15:10:18.083Z,2.07
2023-05-06T15:13:06.912Z,1.67
2023-05-06T15:15:57.103Z,1.70
2023-05-06T15:18:45.713Z,1.90
2023-05-06T15:21:34.189Z,5.40
2023-05-06T15:24:23.070Z,1.20
2023-05-06T15:27:11.524Z,1.40
2023-05-06T15:30:04.147Z,1.50
2023-05-06T15:32:54.041Z,1.57
2023-05-06T15:35:42.530Z,1.70
2023-05-06T15:39:00.491Z,2.03
2023-05-06T15:41:49.328Z,1.57
2023-05-06T15:44:37.883Z,3.77
2023-05-06T15:47:26.405Z,1.30
2023-05-06T15:50:28.921Z,1.40
2023-05-06T15:53:21.865Z,2.57
2023-05-06T15:56:18.249Z,1.57
2023-05-06T15:59:08.127Z,1.40
2023-05-06T16:04:48.326Z,1.40
2023-05-06T16:07:38.461Z,2.07
2023-05-06T16:10:26.984Z,2.10
2023-05-06T16:13:15.580Z,1.37
2023-05-06T16:16:04.337Z,1.83
2023-05-06T16:18:52.838Z,1.87
2023-05-06T16:21:41.333Z,1.77
2023-05-06T16:24:31.245Z,1.70
2023-05-06T16:27:19.996Z,1.70
2023-05-06T16:30:10.001Z,1.60
2023-05-06T16:32:58.655Z,1.60
2023-05-06T16:35:47.157Z,1.43
2023-05-06T16:38:35.671Z,2.70
2023-05-06T16:41:25.689Z,3.60
2023-05-06T16:44:14.201Z,2.10
2023-05-06T16:47:02.764Z,4.03
2023-05-06T16:49:51.486Z,6.37
2023-05-06T16:52:39.938Z,6.23
2023-05-06T16:55:28.494Z,3.83
2023-05-06T16:58:18.377Z,2.67
2023-05-06T17:01:08.187Z,1.60
2023-05-06T17:03:56.993Z,7.80
2023-05-06T17:06:45.556Z,2.80
2023-05-06T17:09:34.157Z,2.07
2023-05-06T17:12:23.837Z,1.60
2023-05-06T17:15:14.041Z,2.57
2023-05-06T17:18:02.560Z,2.13
2023-05-06T17:20:56.626Z,2.20
2023-05-06T17:23:45.647Z,2.20
2023-05-06T17:26:34.967Z,2.90
2023-05-06T17:29:23.394Z,3.70
2023-05-06T17:32:13.257Z,3.83
2023-05-06T17:35:01.760Z,7.10
2023-05-06T17:37:50.394Z,4.10
2023-05-06T17:40:38.869Z,4.10
2023-05-06T17:43:27.346Z,3.17
2023-05-06T17:46:17.573Z,2.33
2023-05-06T17:49:09.255Z,2.23
2023-05-06T17:51:59.364Z,2.10
2023-05-06T17:55:01.052Z,2.33
2023-05-06T17:57:54.478Z,3.70
2023-05-06T18:00:43.066Z,3.50
2023-05-06T18:03:31.588Z,11.13
2023-05-06T18:06:21.519Z,3.20
2023-05-06T18:09:10.705Z,3.00
2023-05-06T18:11:59.253Z,4.97
2023-05-06T18:14:48.674Z,3.07
2023-05-06T18:17:37.185Z,5.97
2023-05-06T18:20:25.690Z,6.20
2023-05-06T18:23:15.869Z,5.20
2023-05-06T18:26:05.400Z,8.80
2023-05-06T18:28:54.074Z,6.03
2023-05-06T18:31:43.051Z,3.50
2023-05-06T18:34:31.500Z,3.90
2023-05-06T18:37:20.038Z,4.40
2023-05-06T18:40:10.839Z,4.43
2023-05-06T18:42:59.590Z,8.30
2023-05-06T18:45:48.223Z,5.80
2023-05-06T18:48:36.767Z,5.73
2023-05-06T18:51:25.298Z,3.70
2023-05-06T18:54:14.994Z,5.53
2023-05-06T18:57:06.117Z,3.93
2023-05-06T18:59:54.676Z,4.67
2023-05-06T19:02:43.287Z,57.20
2023-05-06T19:05:31.794Z,3.60
2023-05-06T19:08:20.348Z,3.87
2023-05-06T19:11:15.517Z,4.30
2023-05-06T19:14:05.369Z,3.70
2023-05-06T19:16:53.858Z,5.80
2023-05-06T19:19:42.447Z,3.20
2023-05-06T19:22:31.458Z,3.70
2023-05-06T19:25:19.996Z,5.30
2023-05-06T19:28:09.531Z,4.93
2023-05-06T19:30:59.441Z,4.27
2023-05-06T19:33:47.987Z,3.77
2023-05-06T19:36:36.502Z,3.60
2023-05-06T19:39:25.003Z,5.00
2023-05-06T19:42:13.466Z,2.87
2023-05-06T19:45:07.858Z,3.80
2023-05-06T19:47:57.850Z,3.50
2023-05-06T19:50:46.517Z,3.27
2023-05-06T19:53:35.220Z,3.67
2023-05-06T19:56:23.721Z,3.40
2023-05-06T19:59:12.184Z,3.63
2023-05-06T20:02:01.839Z,3.27
2023-05-06T20:04:51.797Z,8.33
2023-05-06T20:07:41.264Z,4.07
2023-05-06T20:10:30.500Z,4.20
2023-05-06T20:13:19.336Z,5.00
2023-05-06T20:16:08.192Z,4.00
2023-05-06T20:18:57.144Z,3.60
2023-05-06T20:21:47.090Z,4.40
2023-05-06T20:24:36.707Z,4.20
2023-05-06T20:27:25.180Z,4.90
2023-05-06T20:30:13.935Z,5.90
2023-05-06T20:33:02.580Z,6.93
2023-05-06T20:35:52.288Z,5.13
2023-05-06T20:38:42.068Z,5.60
2023-05-06T20:41:30.977Z,4.47
2023-05-06T20:44:19.496Z,3.97
2023-05-06T20:47:12.276Z,4.77
2023-05-06T20:50:00.857Z,3.73
2023-05-06T20:52:49.365Z,4.07
2023-05-06T20:55:39.271Z,3.90
2023-05-06T20:58:28.557Z,3.80
2023-05-06T21:01:17.473Z,3.30
2023-05-06T21:04:06.314Z,4.43
2023-05-06T21:06:54.796Z,4.40
2023-05-06T21:09:43.734Z,4.43
2023-05-06T21:12:33.797Z,3.47
2023-05-06T21:15:22.395Z,4.00
2023-05-06T21:18:11.052Z,3.90
2023-05-06T21:20:59.730Z,5.77
2023-05-06T21:23:48.207Z,4.43
2023-05-06T21:26:36.741Z,4.03
2023-05-06T21:29:26.612Z,5.10
2023-05-06T21:32:15.457Z,4.70
2023-05-06T21:35:04.352Z,4.60
2023-05-06T21:37:52.885Z,5.87
2023-05-06T21:40:41.434Z,4.60
2023-05-06T21:43:31.439Z,6.03
2023-05-06T21:46:23.250Z,4.30
2023-05-06T21:49:11.756Z,5.50
2023-05-06T21:52:00.207Z,5.50
2023-05-06T21:54:48.661Z,6.60
2023-05-06T21:57:37.418Z,6.20
2023-05-06T22:00:26.187Z,5.63
2023-05-06T22:03:16.059Z,7.20
2023-05-06T22:06:04.796Z,6.00
2023-05-06T22:08:53.380Z,5.67
2023-05-06T22:11:41.887Z,8.63
2023-05-06T22:14:40.097Z,6.43
2023-05-06T22:17:32.688Z,6.07
2023-05-06T22:20:23.680Z,5.43
2023-05-06T22:23:12.374Z,5.10
2023-05-06T22:26:00.861Z,4.83
2023-05-06T22:28:49.707Z,8.37
2023-05-06T22:31:38.227Z,4.60
2023-05-06T22:34:26.788Z,6.40
2023-05-06T22:37:17.238Z,7.60
2023-05-06T22:40:07.136Z,8.03
2023-05-06T22:42:55.687Z,5.83
2023-05-06T22:45:44.173Z,8.33
2023-05-06T22:48:32.722Z,7.37
2023-05-06T22:51:21.244Z,7.43
2023-05-06T22:54:11.186Z,6.30
2023-05-06T22:56:59.732Z,5.90
2023-05-06T22:59:48.176Z,5.50
2023-05-06T23:02:37.241Z,5.60
2023-05-06T23:05:25.766Z,6.40
2023-05-06T23:08:14.258Z,6.80
2023-05-06T23:11:04.111Z,4.93
2023-05-06T23:13:52.599Z,5.23
2023-05-06T23:16:41.167Z,5.43
2023-05-06T23:19:29.734Z,5.57
2023-05-06T23:22:18.171Z,6.00
2023-05-06T23:25:09.399Z,5.07
2023-05-06T23:28:01.261Z,6.90
2023-05-06T23:30:50.070Z,5.33
2023-05-06T23:33:38.569Z,5.70
2023-05-06T23:36:27.288Z,5.50
2023-05-06T23:39:16.075Z,6.07
2023-05-06T23:42:04.682Z,5.53
2023-05-06T23:44:54.739Z,5.10
2023-05-06T23:47:43.581Z,6.07
2023-05-06T23:50:32.086Z,5.13
2023-05-06T23:53:20.594Z,5.67
2023-05-06T23:56:09.107Z,9.70
2023-05-06T23:58:57.805Z,5.90
